Observation data for Post on 03/11/2018      Previous  Date  Next       Current Mesonet Observations  Soil Data  Daily Summary Page  Observations in Plain Language
KPT1 110600Z 32009KT 17/M11 A2986 RMK A01 T01661112  RH  014%=      5-min Rain = 0
KPT1 110605Z 31010KT 16/M11 A2987 RMK A01 T01631113  RH  014%=      5-min Rain = 0
KPT1 110610Z 33011KT 16/M11 A2988 RMK A01 T01631112  RH  014%=      5-min Rain = 0
KPT1 110615Z 34012KT 17/M11 A2988 RMK A01 T01691106  RH  014%=      5-min Rain = 0
KPT1 110620Z 34013KT 17/M10 A2988 RMK A01 T01741097  RH  015%=      5-min Rain = 0
KPT1 110625Z 34011KT 18/M09 A2989 RMK A01 T01751087  RH  016%=      5-min Rain = 0
KPT1 110630Z 33010KT 17/M09 A2989 RMK A01 T01681092  RH  016%=      5-min Rain = 0
KPT1 110635Z 33009KT 16/M10 A2989 RMK A01 T01581097  RH  017%=      5-min Rain = 0
KPT1 110640Z 00012G17KT 16/M06 A2989 RMK A01 T01641059  RH  022%=      5-min Rain = 0
KPT1 110645Z 01014G19KT 18/M01 A299 RMK A01 T01771014  RH  028%=      5-min Rain = 0
KPT1 110650Z 01012G17KT 18/M01 A2991 RMK A01 T01771006  RH  029%=      5-min Rain = 0
KPT1 110655Z 00013G19KT 18/01 A2992 RMK A01 T01770007  RH  032%=      5-min Rain = 0
KPT1 110700Z 01019G28KT 18/03 A2993 RMK A01 T01760029  RH  038%=      5-min Rain = 0
KPT1 110705Z 01017G23KT 17/04 A2994 RMK A01 T01730036  RH  041%=      5-min Rain = 0
KPT1 110710Z 01017G23KT 17/06 A2995 RMK A01 T01690059  RH  049%=      5-min Rain = 0
KPT1 110715Z 01018G25KT 17/07 A2995 RMK A01 T01670071  RH  054%=      5-min Rain = 0
KPT1 110720Z 02017G23KT 17/08 A2995 RMK A01 T01660077  RH  056%=      5-min Rain = 0
KPT1 110725Z 02020G28KT 16/08 A2995 RMK A01 T01640080  RH  058%=      5-min Rain = 0
KPT1 110730Z 03019G25KT 16/08 A2996 RMK A01 T01630083  RH  060%=      5-min Rain = 0
KPT1 110735Z 02019G25KT 16/09 A2996 RMK A01 T01620085  RH  061%=      5-min Rain = 0
KPT1 110740Z 02015G20KT 16/09 A2997 RMK A01 T01610087  RH  062%=      5-min Rain = 0
KPT1 110745Z 02014G20KT 16/09 A2997 RMK A01 T01610088  RH  063%=      5-min Rain = 0
KPT1 110750Z 02019G24KT 16/09 A2997 RMK A01 T01600085  RH  062%=      5-min Rain = 0
KPT1 110755Z 02023G33KT 16/06 A2997 RMK A01 T01580064  RH  054%=      5-min Rain = 0
KPT1 110800Z 01024G31KT 16/05 A2997 RMK A01 T01550046  RH  049%=      5-min Rain = 0
KPT1 110805Z 01025G34KT 15/02 A2998 RMK A01 T01510022  RH  042%=      5-min Rain = 0
KPT1 110810Z 02024G32KT 15/01 A2999 RMK A01 T01490012  RH  040%=      5-min Rain = 0
KPT1 110815Z 02023G31KT 15/00 A2999 RMK A01 T01480003  RH  037%=      5-min Rain = 0
KPT1 110820Z 02021G29KT 15/M01 A2999 RMK A01 T01471007  RH  035%=      5-min Rain = 0
KPT1 110825Z 02020G28KT 15/M01 A30 RMK A01 T01461014  RH  033%=      5-min Rain = 0
KPT1 110830Z 02023G31KT 15/M02 A30 RMK A01 T01451023  RH  031%=      5-min Rain = 0
KPT1 110835Z 02023G30KT 14/M03 A30 RMK A01 T01441029  RH  030%=      5-min Rain = 0
KPT1 110840Z 02021G29KT 14/M03 A30 RMK A01 T01441032  RH  030%=      5-min Rain = 0
KPT1 110845Z 02022G30KT 14/M04 A30 RMK A01 T01431037  RH  029%=      5-min Rain = 0
KPT1 110850Z 03024G33KT 14/M04 A30 RMK A01 T01411041  RH  028%=      5-min Rain = 0
KPT1 110855Z 02021G28KT 14/M04 A3001 RMK A01 T01401043  RH  028%=      5-min Rain = 0
KPT1 110900Z 02023G31KT 14/M04 A3001 RMK A01 T01391044  RH  028%=      5-min Rain = 0
KPT1 110905Z 02022G34KT 14/M05 A3002 RMK A01 T01391045  RH  028%=      5-min Rain = 0
KPT1 110910Z 02023G31KT 14/M05 A3001 RMK A01 T01371045  RH  028%=      5-min Rain = 0
KPT1 110915Z 02019G27KT 14/M05 A3002 RMK A01 T01361045  RH  028%=      5-min Rain = 0
KPT1 110920Z 02020G25KT 14/M04 A3002 RMK A01 T01351044  RH  029%=      5-min Rain = 0
KPT1 110925Z 02018G27KT 13/M04 A3002 RMK A01 T01341044  RH  029%=      5-min Rain = 0
KPT1 110930Z 02020G28KT 13/M04 A3002 RMK A01 T01331044  RH  029%=      5-min Rain = 0
KPT1 110935Z 02018G27KT 13/M05 A3002 RMK A01 T01321045  RH  029%=      5-min Rain = 0
KPT1 110940Z 02020G28KT 13/M04 A3002 RMK A01 T01311044  RH  030%=      5-min Rain = 0
KPT1 110945Z 02022G29KT 13/M04 A3002 RMK A01 T01301042  RH  030%=      5-min Rain = 0
KPT1 110950Z 02023G28KT 13/M04 A3003 RMK A01 T01301040  RH  031%=      5-min Rain = 0
KPT1 110955Z 02019G26KT 13/M04 A3003 RMK A01 T01291038  RH  031%=      5-min Rain = 0
KPT1 111000Z 02019G25KT 13/M04 A3003 RMK A01 T01281038  RH  032%=      5-min Rain = 0
KPT1 111005Z 02019G25KT 13/M04 A3004 RMK A01 T01281038  RH  032%=      5-min Rain = 0
KPT1 111010Z 02018G26KT 13/M04 A3004 RMK A01 T01271038  RH  032%=      5-min Rain = 0
KPT1 111015Z 02017G23KT 13/M04 A3004 RMK A01 T01271041  RH  031%=      5-min Rain = 0
KPT1 111020Z 02021G27KT 13/M05 A3004 RMK A01 T01281047  RH  029%=      5-min Rain = 0
KPT1 111025Z 03020G27KT 13/M05 A3004 RMK A01 T01281052  RH  029%=      5-min Rain = 0
KPT1 111030Z 03018G25KT 13/M05 A3004 RMK A01 T01281053  RH  028%=      5-min Rain = 0
KPT1 111035Z 02017G24KT 13/M06 A3005 RMK A01 T01281056  RH  028%=      5-min Rain = 0
KPT1 111040Z 02016KT 13/M06 A3005 RMK A01 T01271056  RH  028%=      5-min Rain = 0
KPT1 111045Z 02018G26KT 13/M06 A3005 RMK A01 T01261057  RH  028%=      5-min Rain = 0
KPT1 111050Z 02017G24KT 13/M06 A3006 RMK A01 T01261058  RH  028%=      5-min Rain = 0
KPT1 111055Z 02017G26KT 13/M06 A3006 RMK A01 T01261059  RH  027%=      5-min Rain = 0
KPT1 111100Z 02019G26KT 13/M06 A3006 RMK A01 T01261059  RH  027%=      5-min Rain = 0
KPT1 111105Z 03017G24KT 13/M06 A3006 RMK A01 T01251060  RH  027%=      5-min Rain = 0
KPT1 111110Z 02017G23KT 12/M06 A3006 RMK A01 T01241060  RH  027%=      5-min Rain = 0
KPT1 111115Z 02015KT 12/M06 A3007 RMK A01 T01231060  RH  028%=      5-min Rain = 0
KPT1 111120Z 02017G23KT 12/M06 A3007 RMK A01 T01231060  RH  028%=      5-min Rain = 0
KPT1 111125Z 02018G26KT 12/M06 A3008 RMK A01 T01231059  RH  028%=      5-min Rain = 0
KPT1 111130Z 02019G26KT 12/M06 A3008 RMK A01 T01221059  RH  028%=      5-min Rain = 0
KPT1 111135Z 03019G27KT 12/M06 A3008 RMK A01 T01221057  RH  028%=      5-min Rain = 0
KPT1 111140Z 02018G27KT 12/M06 A3008 RMK A01 T01211056  RH  029%=      5-min Rain = 0
KPT1 111145Z 02019G27KT 12/M05 A3008 RMK A01 T01201054  RH  030%=      5-min Rain = 0
KPT1 111150Z 02019G25KT 12/M05 A3008 RMK A01 T01191051  RH  030%=      5-min Rain = 0
KPT1 111155Z 02019G24KT 12/M05 A3008 RMK A01 T01171048  RH  031%=      5-min Rain = 0
KPT1 111200Z 02020G28KT 12/M05 A3009 RMK A01 T01171046  RH  032%=      5-min Rain = 0
KPT1 111205Z 02018G23KT 12/M05 A301 RMK A01 T01151045  RH  033%=      5-min Rain = 0
KPT1 111210Z 02018G24KT 11/M05 A301 RMK A01 T01141045  RH  033%=      5-min Rain = 0
KPT1 111215Z 02018G24KT 11/M05 A301 RMK A01 T01131046  RH  033%=      5-min Rain = 0
KPT1 111220Z 02019G25KT 11/M05 A301 RMK A01 T01121048  RH  033%=      5-min Rain = 0
KPT1 111225Z 02017G23KT 11/M05 A3011 RMK A01 T01111048  RH  033%=      5-min Rain = 0
KPT1 111230Z 02021G28KT 11/M05 A3011 RMK A01 T01091048  RH  033%=      5-min Rain = 0
KPT1 111235Z 02021G30KT 11/M05 A3011 RMK A01 T01081048  RH  033%=      5-min Rain = 0
KPT1 111240Z 02020G26KT 11/M05 A3011 RMK A01 T01081048  RH  034%=      5-min Rain = 0
KPT1 111245Z 02016G27KT 11/M05 A3012 RMK A01 T01071047  RH  034%=      5-min Rain = 0
KPT1 111250Z 03020G27KT 11/M05 A3012 RMK A01 T01061047  RH  034%=      5-min Rain = 0
KPT1 111255Z 02020G28KT 11/M05 A3013 RMK A01 T01051046  RH  035%=      5-min Rain = 0
KPT1 111300Z 02017G25KT 10/M05 A3013 RMK A01 T01041045  RH  035%=      5-min Rain = 0
KPT1 111305Z 02020G30KT 10/M04 A3014 RMK A01 T01041044  RH  036%=      5-min Rain = 0
KPT1 111310Z 02017G23KT 10/M04 A3014 RMK A01 T01031043  RH  036%=      5-min Rain = 0
KPT1 111315Z 02018G26KT 10/M04 A3014 RMK A01 T01021043  RH  036%=      5-min Rain = 0
KPT1 111320Z 02016KT 10/M04 A3015 RMK A01 T01021042  RH  037%=      5-min Rain = 0
KPT1 111325Z 02014G19KT 10/M04 A3016 RMK A01 T01011041  RH  037%=      5-min Rain = 0
KPT1 111330Z 02015G22KT 10/M04 A3016 RMK A01 T01011041  RH  037%=      5-min Rain = 0
KPT1 111335Z 02018G24KT 10/M04 A3016 RMK A01 T01021041  RH  037%=      5-min Rain = 0
KPT1 111340Z 02017G23KT 10/M04 A3017 RMK A01 T01031041  RH  037%=      5-min Rain = 0
KPT1 111345Z 02015G20KT 10/M04 A3017 RMK A01 T01031040  RH  037%=      5-min Rain = 0
KPT1 111350Z 01018G25KT 10/M04 A3018 RMK A01 T01021041  RH  037%=      5-min Rain = 0
KPT1 111355Z 01019G26KT 10/M04 A3018 RMK A01 T01011043  RH  036%=      5-min Rain = 0
KPT1 111400Z 01017G23KT 10/M04 A3018 RMK A01 T01011043  RH  037%=      5-min Rain = 0
KPT1 111405Z 00018G25KT 10/M04 A3018 RMK A01 T01001044  RH  036%=      5-min Rain = 0
KPT1 111410Z 01014G20KT 10/M04 A3019 RMK A01 T01011044  RH  036%=      5-min Rain = 0
KPT1 111415Z 36017G24KT 10/M05 A3019 RMK A01 T01001048  RH  035%=      5-min Rain = 0
KPT1 111420Z 00017G23KT 10/M05 A302 RMK A01 T00981054  RH  034%=      5-min Rain = 0
KPT1 111425Z 01016G22KT 10/M06 A302 RMK A01 T00981056  RH  034%=      5-min Rain = 0
KPT1 111430Z 01018G23KT 10/M06 A302 RMK A01 T00981061  RH  033%=      5-min Rain = 0
KPT1 111435Z 01019G25KT 10/M07 A3021 RMK A01 T00981066  RH  031%=      5-min Rain = 0
KPT1 111440Z 01020G26KT 10/M07 A3021 RMK A01 T00981069  RH  030%=      5-min Rain = 0
KPT1 111445Z 01017G26KT 10/M07 A3022 RMK A01 T01001071  RH  030%=      5-min Rain = 0
KPT1 111450Z 02016G24KT 10/M07 A3022 RMK A01 T01041072  RH  029%=      5-min Rain = 0
KPT1 111455Z 01017G24KT 10/M07 A3022 RMK A01 T01041073  RH  028%=      5-min Rain = 0
KPT1 111500Z 01019G25KT 11/M08 A3022 RMK A01 T01051075  RH  028%=      5-min Rain = 0
KPT1 111505Z 01019G25KT 11/M08 A3022 RMK A01 T01051077  RH  027%=      5-min Rain = 0
KPT1 111510Z 02020G26KT 11/M08 A3022 RMK A01 T01071078  RH  027%=      5-min Rain = 0
KPT1 111515Z 01021G27KT 11/M08 A3023 RMK A01 T01061081  RH  026%=      5-min Rain = 0
KPT1 111520Z 01021G29KT 11/M09 A3023 RMK A01 T01071085  RH  025%=      5-min Rain = 0
KPT1 111525Z 02021G26KT 11/M09 A3024 RMK A01 T01071086  RH  025%=      5-min Rain = 0
KPT1 111530Z 01020G26KT 11/M09 A3024 RMK A01 T01071088  RH  025%=      5-min Rain = 0
KPT1 111535Z 02017G23KT 11/M09 A3024 RMK A01 T01101087  RH  025%=      5-min Rain = 0
KPT1 111540Z 02019G25KT 11/M09 A3024 RMK A01 T01111089  RH  024%=      5-min Rain = 0
KPT1 111545Z 01020G26KT 11/M09 A3024 RMK A01 T01081093  RH  024%=      5-min Rain = 0
KPT1 111550Z 02020G26KT 11/M10 A3025 RMK A01 T01081097  RH  023%=      5-min Rain = 0
KPT1 111555Z 02020G29KT 11/M10 A3025 RMK A01 T01131096  RH  022%=      5-min Rain = 0
KPT1 111600Z 02020G26KT 11/M10 A3025 RMK A01 T01091099  RH  022%=      5-min Rain = 0
KPT1 111605Z 02017G24KT 11/M10 A3026 RMK A01 T01121095  RH  023%=      5-min Rain = 0
KPT1 111610Z 03021G28KT 11/M10 A3025 RMK A01 T01111098  RH  022%=      5-min Rain = 0
KPT1 111615Z 02016G25KT 11/M09 A3026 RMK A01 T01121091  RH  023%=      5-min Rain = 0
KPT1 111620Z 01018G25KT 11/M09 A3026 RMK A01 T01111091  RH  024%=      5-min Rain = 0
KPT1 111625Z 01019G26KT 11/M09 A3026 RMK A01 T01081091  RH  024%=      5-min Rain = 0
KPT1 111630Z 01021G27KT 11/M09 A3026 RMK A01 T01081091  RH  024%=      5-min Rain = 0
KPT1 111635Z 02018G25KT 11/M09 A3026 RMK A01 T01111089  RH  024%=      5-min Rain = 0
KPT1 111640Z 02017G22KT 11/M09 A3026 RMK A01 T01111090  RH  024%=      5-min Rain = 0
KPT1 111645Z 02015G20KT 11/M09 A3027 RMK A01 T01091088  RH  024%=      5-min Rain = 0
KPT1 111650Z 02017G25KT 11/M09 A3027 RMK A01 T01101088  RH  024%=      5-min Rain = 0
KPT1 111655Z 02019G25KT 11/M10 A3027 RMK A01 T01071100  RH  023%=      5-min Rain = 0
KPT1 111700Z 03019G24KT 11/M10 A3027 RMK A01 T01051096  RH  024%=      5-min Rain = 0
KPT1 111705Z 03016G21KT 11/M09 A3027 RMK A01 T01071088  RH  025%=      5-min Rain = 0
KPT1 111710Z 02015G22KT 11/M09 A3027 RMK A01 T01101088  RH  024%=      5-min Rain = 0
KPT1 111715Z 02015G21KT 11/M09 A3028 RMK A01 T01091087  RH  025%=      5-min Rain = 0
KPT1 111720Z 01017G24KT 11/M09 A3028 RMK A01 T01061091  RH  024%=      5-min Rain = 0
KPT1 111725Z 02017G23KT 11/M10 A3028 RMK A01 T01061095  RH  024%=      5-min Rain = 0
KPT1 111730Z 01015G22KT 11/M10 A3028 RMK A01 T01071096  RH  023%=      5-min Rain = 0
KPT1 111735Z 01015G22KT 11/M10 A3028 RMK A01 T01071096  RH  023%=      5-min Rain = 0
KPT1 111740Z 02015G22KT 11/M09 A3028 RMK A01 T01081093  RH  024%=      5-min Rain = 0
KPT1 111745Z 02017G22KT 11/M10 A3028 RMK A01 T01091099  RH  022%=      5-min Rain = 0
KPT1 111750Z 03016G21KT 11/M10 A3028 RMK A01 T01081102  RH  022%=      5-min Rain = 0
KPT1 111755Z 03017G22KT 11/M11 A3028 RMK A01 T01091108  RH  021%=      5-min Rain = 0
KPT1 111800Z 04016G21KT 11/M10 A3028 RMK A01 T01061103  RH  022%=      5-min Rain = 0
KPT1 111805Z 03013KT 11/M10 A3028 RMK A01 T01071098  RH  023%=      5-min Rain = 0
KPT1 111810Z 02014G20KT 11/M09 A3028 RMK A01 T01101094  RH  023%=      5-min Rain = 0
KPT1 111815Z 01015KT 12/M09 A3028 RMK A01 T01161094  RH  022%=      5-min Rain = 0
KPT1 111820Z 02015G21KT 12/M10 A3029 RMK A01 T01171096  RH  022%=      5-min Rain = 0
KPT1 111825Z 03013KT 12/M09 A3029 RMK A01 T01161093  RH  022%=      5-min Rain = 0
KPT1 111830Z 03011G18KT 12/M09 A3029 RMK A01 T01171093  RH  022%=      5-min Rain = 0
KPT1 111835Z 01011KT 12/M09 A3029 RMK A01 T01171094  RH  022%=      5-min Rain = 0
KPT1 111840Z 02011G17KT 12/M09 A3029 RMK A01 T01221092  RH  022%=      5-min Rain = 0
KPT1 111845Z 36013G19KT 12/M10 A3028 RMK A01 T01241099  RH  020%=      5-min Rain = 0
KPT1 111850Z 02015G21KT 13/M11 A3028 RMK A01 T01301105  RH  019%=      5-min Rain = 0
KPT1 111855Z 02013KT 13/M11 A3028 RMK A01 T01301106  RH  018%=      5-min Rain = 0
KPT1 111900Z 01012G17KT 13/M10 A3028 RMK A01 T01271103  RH  019%=      5-min Rain = 0
KPT1 111905Z 02013G18KT 12/M10 A3028 RMK A01 T01241101  RH  020%=      5-min Rain = 0
KPT1 111910Z 01014KT 13/M10 A3027 RMK A01 T01261101  RH  020%=      5-min Rain = 0
KPT1 111915Z 01009G14KT 13/M10 A3027 RMK A01 T01271099  RH  020%=      5-min Rain = 0
KPT1 111920Z 02011G16KT 14/M10 A3026 RMK A01 T01381101  RH  018%=      5-min Rain = 0
KPT1 111925Z 00014G20KT 14/M11 A3026 RMK A01 T01391106  RH  018%=      5-min Rain = 0
KPT1 111930Z 01013G19KT 14/M11 A3026 RMK A01 T01391106  RH  017%=      5-min Rain = 0
KPT1 111935Z 00013G19KT 14/M11 A3026 RMK A01 T01381108  RH  017%=      5-min Rain = 0
KPT1 111940Z 01014KT 14/M11 A3026 RMK A01 T01361108  RH  018%=      5-min Rain = 0
KPT1 111945Z 36014G19KT 14/M11 A3026 RMK A01 T01371106  RH  018%=      5-min Rain = 0
KPT1 111950Z 00012G18KT 14/M11 A3026 RMK A01 T01361106  RH  018%=      5-min Rain = 0
KPT1 111955Z 01012G18KT 14/M11 A3026 RMK A01 T01401106  RH  017%=      5-min Rain = 0
KPT1 112000Z 02014G19KT 14/M11 A3026 RMK A01 T01381107  RH  018%=      5-min Rain = 0
KPT1 112005Z 02012G18KT 14/M11 A3026 RMK A01 T01391106  RH  017%=      5-min Rain = 0
KPT1 112010Z 02014KT 14/M11 A3026 RMK A01 T01421107  RH  017%=      5-min Rain = 0
KPT1 112015Z 01010KT 14/M11 A3026 RMK A01 T01411107  RH  017%=      5-min Rain = 0
KPT1 112020Z 02013G21KT 14/M11 A3026 RMK A01 T01431107  RH  017%=      5-min Rain = 0
KPT1 112025Z 01014G20KT 14/M11 A3026 RMK A01 T01411107  RH  017%=      5-min Rain = 0
KPT1 112030Z 01010G18KT 14/M11 A3026 RMK A01 T01391105  RH  018%=      5-min Rain = 0
KPT1 112035Z 36013KT 14/M11 A3025 RMK A01 T01381106  RH  017%=      5-min Rain = 0
KPT1 112040Z 36011KT 14/M11 A3025 RMK A01 T01391106  RH  017%=      5-min Rain = 0
KPT1 112045Z 00013G18KT 14/M11 A3025 RMK A01 T01401105  RH  018%=      5-min Rain = 0
KPT1 112050Z 00013G18KT 14/M11 A3025 RMK A01 T01391105  RH  018%=      5-min Rain = 0
KPT1 112055Z 35011KT 14/M10 A3025 RMK A01 T01411103  RH  018%=      5-min Rain = 0
KPT1 112100Z 01013G21KT 15/M10 A3024 RMK A01 T01451104  RH  017%=      5-min Rain = 0
KPT1 112105Z 35013G19KT 14/M10 A3024 RMK A01 T01441104  RH  017%=      5-min Rain = 0
KPT1 112110Z 01010G15KT 15/M10 A3024 RMK A01 T01461104  RH  017%=      5-min Rain = 0
KPT1 112115Z 02009G14KT 15/M10 A3024 RMK A01 T01501103  RH  017%=      5-min Rain = 0
KPT1 112120Z 01012KT 15/M10 A3024 RMK A01 T01521102  RH  016%=      5-min Rain = 0
KPT1 112125Z 02011KT 15/M10 A3023 RMK A01 T01521101  RH  017%=      5-min Rain = 0
KPT1 112130Z 36013G19KT 15/M10 A3024 RMK A01 T01531102  RH  016%=      5-min Rain = 0
KPT1 112135Z 36009G17KT 15/M10 A3024 RMK A01 T01541100  RH  017%=      5-min Rain = 0
KPT1 112140Z 01011G17KT 15/M10 A3023 RMK A01 T01531101  RH  017%=      5-min Rain = 0
KPT1 112145Z 01013G22KT 16/M10 A3023 RMK A01 T01551102  RH  016%=      5-min Rain = 0
KPT1 112150Z 36009G15KT 16/M10 A3023 RMK A01 T01591103  RH  016%=      5-min Rain = 0
KPT1 112155Z 00013G21KT 16/M11 A3023 RMK A01 T01551105  RH  016%=      5-min Rain = 0
KPT1 112200Z 36013G18KT 16/M11 A3023 RMK A01 T01551106  RH  016%=      5-min Rain = 0
KPT1 112205Z 36011KT 16/M11 A3023 RMK A01 T01561107  RH  016%=      5-min Rain = 0
KPT1 112210Z 01015G20KT 16/M11 A3022 RMK A01 T01561109  RH  015%=      5-min Rain = 0
KPT1 112215Z 00011G17KT 15/M11 A3022 RMK A01 T01521110  RH  016%=      5-min Rain = 0
KPT1 112220Z 00013G18KT 16/M11 A3023 RMK A01 T01591112  RH  015%=      5-min Rain = 0
KPT1 112225Z 34012G17KT 15/M11 A3023 RMK A01 T01541113  RH  015%=      5-min Rain = 0
KPT1 112230Z 00011G18KT 16/M11 A3023 RMK A01 T01561112  RH  015%=      5-min Rain = 0
KPT1 112235Z 01011G21KT 16/M11 A3023 RMK A01 T01571112  RH  015%=      5-min Rain = 0
KPT1 112240Z 01011G17KT 15/M11 A3023 RMK A01 T01511112  RH  015%=      5-min Rain = 0
KPT1 112245Z 36010G15KT 15/M11 A3023 RMK A01 T01531112  RH  015%=      5-min Rain = 0
KPT1 112250Z 01011KT 15/M11 A3023 RMK A01 T01501114  RH  015%=      5-min Rain = 0
KPT1 112255Z 01009KT 15/M12 A3023 RMK A01 T01521115  RH  015%=      5-min Rain = 0
KPT1 112300Z 36011G16KT 15/M12 A3023 RMK A01 T01511118  RH  015%=      5-min Rain = 0
KPT1 112305Z 35011KT 15/M12 A3024 RMK A01 T01511118  RH  015%=      5-min Rain = 0
KPT1 112310Z 01010KT 15/M12 A3024 RMK A01 T01481118  RH  015%=      5-min Rain = 0
KPT1 112315Z 01010KT 15/M12 A3024 RMK A01 T01501117  RH  015%=      5-min Rain = 0
KPT1 112320Z 36008G15KT 15/M12 A3024 RMK A01 T01531117  RH  015%=      5-min Rain = 0
KPT1 112325Z 35009KT 15/M12 A3024 RMK A01 T01521118  RH  015%=      5-min Rain = 0
KPT1 112330Z 34011G16KT 15/M12 A3024 RMK A01 T01501119  RH  015%=      5-min Rain = 0
KPT1 112335Z 01011G16KT 14/M13 A3024 RMK A01 T01441127  RH  014%=      5-min Rain = 0
KPT1 112340Z 01010KT 14/M13 A3024 RMK A01 T01441129  RH  014%=      5-min Rain = 0
KPT1 112345Z 02012KT 15/M13 A3024 RMK A01 T01501132  RH  013%=      5-min Rain = 0
KPT1 112350Z 02010KT 15/M13 A3024 RMK A01 T01491131  RH  013%=      5-min Rain = 0
KPT1 112355Z 01010KT 15/M13 A3024 RMK A01 T01451130  RH  014%=      5-min Rain = 0
KPT1 120000Z 01008KT 14/M13 A3024 RMK A01 T01401131  RH  014%=      5-min Rain = 0
KPT1 120005Z 01007KT 14/M13 A3024 RMK A01 T01401130  RH  014%=      5-min Rain = 0
KPT1 120010Z 03009G14KT 14/M13 A3024 RMK A01 T01411132  RH  014%=      5-min Rain = 0
KPT1 120015Z 03010KT 14/M13 A3024 RMK A01 T01421133  RH  014%=      5-min Rain = 0
KPT1 120020Z 03009KT 14/M14 A3024 RMK A01 T01421135  RH  014%=      5-min Rain = 0
KPT1 120025Z 02010KT 14/M14 A3024 RMK A01 T01401142  RH  013%=      5-min Rain = 0
KPT1 120030Z 02010KT 14/M15 A3025 RMK A01 T01381152  RH  012%=      5-min Rain = 0
KPT1 120035Z 02011KT 14/M16 A3025 RMK A01 T01361157  RH  012%=      5-min Rain = 0
KPT1 120040Z 02010KT 13/M16 A3025 RMK A01 T01331157  RH  012%=      5-min Rain = 0
KPT1 120045Z 02009KT 13/M16 A3025 RMK A01 T01291158  RH  012%=      5-min Rain = 0
KPT1 120050Z 03009KT 13/M16 A3026 RMK A01 T01261158  RH  013%=      5-min Rain = 0
KPT1 120055Z 02009KT 12/M16 A3026 RMK A01 T01241157  RH  013%=      5-min Rain = 0
KPT1 120100Z 02009KT 12/M16 A3026 RMK A01 T01221155  RH  013%=      5-min Rain = 0
KPT1 120105Z 02008KT 12/M15 A3026 RMK A01 T01201154  RH  013%=      5-min Rain = 0
KPT1 120110Z 02008KT 12/M15 A3026 RMK A01 T01161154  RH  014%=      5-min Rain = 0
KPT1 120115Z 02007KT 11/M15 A3027 RMK A01 T01131154  RH  014%=      5-min Rain = 0
KPT1 120120Z 02007KT 11/M15 A3027 RMK A01 T01111154  RH  014%=      5-min Rain = 0
KPT1 120125Z 02006KT 11/M15 A3027 RMK A01 T01081154  RH  014%=      5-min Rain = 0
KPT1 120130Z 02007KT 11/M16 A3027 RMK A01 T01061155  RH  015%=      5-min Rain = 0
KPT1 120135Z 01007KT 10/M16 A3028 RMK A01 T01031155  RH  015%=      5-min Rain = 0
KPT1 120140Z 01006KT 10/M16 A3028 RMK A01 T01011156  RH  015%=      5-min Rain = 0
KPT1 120145Z 01006KT 10/M16 A3028 RMK A01 T01011156  RH  015%=      5-min Rain = 0
KPT1 120150Z 01008KT 10/M16 A3029 RMK A01 T00991158  RH  015%=      5-min Rain = 0
KPT1 120155Z 02009KT 10/M17 A3029 RMK A01 T00981165  RH  014%=      5-min Rain = 0
KPT1 120200Z 03009KT 10/M17 A3029 RMK A01 T00991170  RH  014%=      5-min Rain = 0
KPT1 120205Z 03008KT 10/M17 A3029 RMK A01 T00981172  RH  013%=      5-min Rain = 0
KPT1 120210Z 03007KT 10/M17 A3029 RMK A01 T00951173  RH  014%=      5-min Rain = 0
KPT1 120215Z 03007KT 09/M17 A3029 RMK A01 T00931173  RH  014%=      5-min Rain = 0
KPT1 120220Z 02005KT 09/M17 A3029 RMK A01 T00901172  RH  014%=      5-min Rain = 0
KPT1 120225Z 02004KT 09/M17 A303 RMK A01 T00881172  RH  014%=      5-min Rain = 0
KPT1 120230Z 02004KT 09/M17 A303 RMK A01 T00871173  RH  014%=      5-min Rain = 0
KPT1 120235Z 00004KT 09/M17 A303 RMK A01 T00851174  RH  014%=      5-min Rain = 0
KPT1 120240Z 36004KT 08/M17 A303 RMK A01 T00821173  RH  015%=      5-min Rain = 0
KPT1 120245Z 34004KT 08/M17 A3031 RMK A01 T00791165  RH  016%=      5-min Rain = 0
KPT1 120250Z 33004KT 08/M17 A3031 RMK A01 T00751170  RH  016%=      5-min Rain = 0
KPT1 120255Z 33004KT 07/M17 A3031 RMK A01 T00741170  RH  016%=      5-min Rain = 0
KPT1 120300Z 32004KT 07/M17 A3031 RMK A01 T00711170  RH  016%=      5-min Rain = 0
KPT1 120305Z 31004KT 07/M17 A3031 RMK A01 T00701170  RH  016%=      5-min Rain = 0
KPT1 120310Z 32005KT 07/M17 A3031 RMK A01 T00681170  RH  017%=      5-min Rain = 0
KPT1 120315Z 33006KT 07/M17 A3032 RMK A01 T00661168  RH  017%=      5-min Rain = 0
KPT1 120320Z 34007KT 07/M17 A3032 RMK A01 T00651166  RH  018%=      5-min Rain = 0
KPT1 120325Z 34008KT 07/M16 A3032 RMK A01 T00661163  RH  018%=      5-min Rain = 0
KPT1 120330Z 35008KT 07/M16 A3032 RMK A01 T00691156  RH  019%=      5-min Rain = 0
KPT1 120335Z 34006KT 07/M16 A3032 RMK A01 T00721158  RH  018%=      5-min Rain = 0
KPT1 120340Z 34006KT 07/M16 A3032 RMK A01 T00671160  RH  018%=      5-min Rain = 0
KPT1 120345Z 33006KT 07/M17 A3033 RMK A01 T00651167  RH  017%=      5-min Rain = 0
KPT1 120350Z 33006KT 06/M17 A3033 RMK A01 T00641169  RH  017%=      5-min Rain = 0
KPT1 120355Z 32006KT 06/M17 A3033 RMK A01 T00601167  RH  018%=      5-min Rain = 0
KPT1 120400Z 32006KT 06/M17 A3033 RMK A01 T00561169  RH  018%=      5-min Rain = 0
KPT1 120405Z 33006KT 05/M17 A3033 RMK A01 T00521168  RH  019%=      5-min Rain = 0
KPT1 120410Z 34007KT 05/M16 A3033 RMK A01 T00521164  RH  020%=      5-min Rain = 0
KPT1 120415Z 35007KT 05/M16 A3033 RMK A01 T00541157  RH  021%=      5-min Rain = 0
KPT1 120420Z 35007KT 06/M15 A3033 RMK A01 T00561151  RH  021%=      5-min Rain = 0
KPT1 120425Z 34007KT 06/M16 A3033 RMK A01 T00571156  RH  020%=      5-min Rain = 0
KPT1 120430Z 35006KT 06/M16 A3033 RMK A01 T00581160  RH  019%=      5-min Rain = 0
KPT1 120435Z 36006KT 07/M16 A3034 RMK A01 T00651159  RH  019%=      5-min Rain = 0
KPT1 120440Z 35005KT 07/M16 A3034 RMK A01 T00651160  RH  019%=      5-min Rain = 0
KPT1 120445Z 34004KT 06/M16 A3034 RMK A01 T00591158  RH  020%=      5-min Rain = 0
KPT1 120450Z 34004KT 05/M16 A3035 RMK A01 T00491162  RH  020%=      5-min Rain = 0
KPT1 120455Z 34004KT 05/M16 A3035 RMK A01 T00491164  RH  020%=      5-min Rain = 0

Page generated in 0.0647 seconds.